createdAt,value
2022-12-10T00:01:24.226Z,18.20
2022-12-10T00:03:52.127Z,18.80
2022-12-10T00:06:23.767Z,17.57
2022-12-10T00:08:51.464Z,17.37
2022-12-10T00:11:20.346Z,16.27
2022-12-10T00:13:48.764Z,18.37
2022-12-10T00:16:18.533Z,17.63
2022-12-10T00:18:46.705Z,16.70
2022-12-10T00:21:17.513Z,19.20
2022-12-10T00:23:45.404Z,16.17
2022-12-10T00:26:34.000Z,17.97
2022-12-10T00:29:03.658Z,17.03
2022-12-10T00:31:33.769Z,17.40
2022-12-10T00:34:04.207Z,16.73
2022-12-10T00:36:53.617Z,15.97
2022-12-10T00:39:21.988Z,17.60
2022-12-10T00:41:49.686Z,18.73
2022-12-10T00:44:17.403Z,18.77
2022-12-10T00:46:45.635Z,15.57
2022-12-10T00:49:14.223Z,16.50
2022-12-10T00:51:41.749Z,15.10
2022-12-10T00:54:09.569Z,17.30
2022-12-10T00:56:37.083Z,17.83
2022-12-10T00:59:04.662Z,15.83
2022-12-10T01:01:38.570Z,14.27
2022-12-10T01:04:09.390Z,15.60
2022-12-10T01:06:45.259Z,16.10
2022-12-10T01:09:15.018Z,15.97
2022-12-10T01:11:44.619Z,14.17
2022-12-10T01:14:15.875Z,15.63
2022-12-10T01:16:43.495Z,15.40
2022-12-10T01:19:11.759Z,14.93
2022-12-10T01:21:39.167Z,15.73
2022-12-10T01:24:06.986Z,14.03
2022-12-10T01:26:35.822Z,15.37
2022-12-10T01:29:05.071Z,16.37
2022-12-10T01:31:36.093Z,16.00
2022-12-10T01:34:06.554Z,15.10
2022-12-10T01:36:39.890Z,16.40
2022-12-10T01:39:09.756Z,16.97
2022-12-10T01:41:54.461Z,17.23
2022-12-10T01:44:21.675Z,15.10
2022-12-10T01:46:54.577Z,15.83
2022-12-10T01:49:37.633Z,15.90
2022-12-10T01:52:07.894Z,16.60
2022-12-10T01:54:42.720Z,16.80
2022-12-10T01:57:20.118Z,14.87
2022-12-10T01:59:52.135Z,15.47
2022-12-10T02:02:44.132Z,14.90
2022-12-10T02:05:26.551Z,15.50
2022-12-10T02:08:00.176Z,16.70
2022-12-10T02:10:52.579Z,18.20
2022-12-10T02:13:36.610Z,16.93
2022-12-10T02:16:32.504Z,16.53
2022-12-10T02:19:13.443Z,15.83
2022-12-10T02:21:44.815Z,16.50
2022-12-10T02:24:19.163Z,15.47
2022-12-10T02:27:02.141Z,17.47
2022-12-10T02:29:31.906Z,15.07
2022-12-10T02:32:37.585Z,15.60
2022-12-10T02:35:12.833Z,15.83
2022-12-10T02:37:48.164Z,16.43
2022-12-10T02:40:24.558Z,16.67
2022-12-10T02:42:54.515Z,17.27
2022-12-10T02:45:26.752Z,16.17
2022-12-10T02:47:58.576Z,15.37
2022-12-10T02:50:29.419Z,17.87
2022-12-10T02:52:56.967Z,16.20
2022-12-10T02:55:24.395Z,17.10
2022-12-10T02:58:16.072Z,17.30
2022-12-10T03:00:56.801Z,15.50
2022-12-10T03:03:45.319Z,16.00
2022-12-10T03:06:22.277Z,17.63
2022-12-10T03:09:08.967Z,15.90
2022-12-10T03:11:37.709Z,17.57
2022-12-10T03:14:19.748Z,17.63
2022-12-10T03:16:54.145Z,18.67
2022-12-10T03:19:25.766Z,15.47
2022-12-10T03:21:54.955Z,16.93
2022-12-10T03:24:28.663Z,18.13
2022-12-10T03:26:58.620Z,17.60
2022-12-10T03:29:31.322Z,16.70
2022-12-10T03:32:01.767Z,17.17
2022-12-10T03:34:29.814Z,16.50
2022-12-10T03:36:57.780Z,17.07
2022-12-10T03:39:25.346Z,15.97
2022-12-10T03:41:52.650Z,16.03
2022-12-10T03:44:31.714Z,16.93
2022-12-10T03:46:59.613Z,16.93
2022-12-10T03:49:26.970Z,15.03
2022-12-10T03:51:54.178Z,16.97
2022-12-10T03:54:21.577Z,15.97
2022-12-10T03:56:49.186Z,15.43
2022-12-10T03:59:16.514Z,16.23
2022-12-10T04:01:44.019Z,16.40
2022-12-10T04:04:11.439Z,15.43
2022-12-10T04:06:40.256Z,15.53
2022-12-10T04:09:10.227Z,15.93
2022-12-10T04:11:37.692Z,17.57
2022-12-10T04:14:23.661Z,17.27
2022-12-10T04:16:51.075Z,17.47
2022-12-10T04:19:19.658Z,17.67
2022-12-10T04:22:06.018Z,17.60
2022-12-10T04:24:53.767Z,16.73
2022-12-10T04:27:30.617Z,15.33
2022-12-10T04:29:58.883Z,16.37
2022-12-10T04:32:28.333Z,16.17
2022-12-10T04:34:56.233Z,16.33
2022-12-10T04:37:24.526Z,16.27
2022-12-10T04:39:52.751Z,15.13
2022-12-10T04:42:22.155Z,17.17
2022-12-10T04:44:50.255Z,13.83
2022-12-10T04:47:18.070Z,16.63
2022-12-10T04:49:45.602Z,14.83
2022-12-10T04:52:15.372Z,14.63
2022-12-10T04:54:43.824Z,16.07
2022-12-10T04:57:12.141Z,17.23
2022-12-10T04:59:39.566Z,16.47
2022-12-10T05:02:07.270Z,16.27
2022-12-10T05:04:35.242Z,16.07
2022-12-10T05:07:02.879Z,15.37
2022-12-10T05:09:30.678Z,16.57
2022-12-10T05:11:58.097Z,17.07
2022-12-10T05:14:25.762Z,16.43
2022-12-10T05:16:53.197Z,16.27
2022-12-10T05:19:22.837Z,16.63
2022-12-10T05:22:09.404Z,16.47
2022-12-10T05:24:37.480Z,16.27
2022-12-10T05:27:05.518Z,17.03
2022-12-10T05:29:33.923Z,17.53
2022-12-10T05:32:01.275Z,16.77
2022-12-10T05:34:28.657Z,18.00
2022-12-10T05:36:56.104Z,17.07
2022-12-10T05:39:23.629Z,18.60
2022-12-10T05:41:51.192Z,16.83
2022-12-10T05:44:18.453Z,15.43
2022-12-10T05:46:46.000Z,16.40
2022-12-10T05:49:13.269Z,17.53
2022-12-10T05:51:40.895Z,16.87
2022-12-10T05:54:10.316Z,16.80
2022-12-10T05:56:38.670Z,16.30
2022-12-10T05:59:10.047Z,17.50
2022-12-10T06:01:42.553Z,18.83
2022-12-10T06:04:10.125Z,17.40
2022-12-10T06:06:39.245Z,16.13
2022-12-10T06:09:11.506Z,19.47
2022-12-10T06:11:39.284Z,17.27
2022-12-10T06:14:06.683Z,17.60
2022-12-10T06:16:34.123Z,17.23
2022-12-10T06:19:02.450Z,19.47
2022-12-10T06:21:29.877Z,16.60
2022-12-10T06:23:57.234Z,15.90
2022-12-10T06:26:26.594Z,16.60
2022-12-10T06:28:55.049Z,16.00
2022-12-10T06:31:24.101Z,16.90
2022-12-10T06:33:53.084Z,16.87
2022-12-10T06:36:20.732Z,17.43
2022-12-10T06:38:49.126Z,16.60
2022-12-10T06:41:18.867Z,16.87
2022-12-10T06:43:46.352Z,15.50
2022-12-10T06:46:21.082Z,15.87
2022-12-10T06:48:48.988Z,16.77
2022-12-10T06:51:18.184Z,16.17
2022-12-10T06:53:46.342Z,14.73
2022-12-10T06:56:16.307Z,15.77
2022-12-10T06:58:44.738Z,16.60
2022-12-10T07:01:15.046Z,17.23
2022-12-10T07:03:42.958Z,18.03
2022-12-10T07:06:12.235Z,15.80
2022-12-10T07:08:40.325Z,16.73
2022-12-10T07:11:12.982Z,16.40
2022-12-10T07:13:41.136Z,17.20
2022-12-10T07:16:16.904Z,16.33
2022-12-10T07:18:51.518Z,15.60
2022-12-10T07:21:33.006Z,17.50
2022-12-10T07:24:06.615Z,15.17
2022-12-10T07:26:37.062Z,15.33
2022-12-10T07:29:06.230Z,15.13
2022-12-10T07:31:35.049Z,16.17
2022-12-10T07:34:02.655Z,17.93
2022-12-10T07:36:30.272Z,16.57
2022-12-10T07:38:57.920Z,17.67
2022-12-10T07:41:26.568Z,17.20
2022-12-10T07:43:54.387Z,16.60
2022-12-10T07:46:24.567Z,17.40
2022-12-10T07:48:52.190Z,17.30
2022-12-10T07:51:21.799Z,16.77
2022-12-10T07:53:51.955Z,16.40
2022-12-10T07:56:19.668Z,16.77
2022-12-10T07:58:47.306Z,15.37
2022-12-10T08:01:18.477Z,16.77
2022-12-10T08:03:46.161Z,16.73
2022-12-10T08:06:16.726Z,16.67
2022-12-10T08:08:45.494Z,16.23
2022-12-10T08:11:14.754Z,17.50
2022-12-10T08:13:42.914Z,17.37
2022-12-10T08:16:16.489Z,16.13
2022-12-10T08:18:44.967Z,15.90
2022-12-10T08:21:18.886Z,17.90
2022-12-10T08:23:47.327Z,16.37
2022-12-10T08:26:23.532Z,16.87
2022-12-10T08:28:51.367Z,16.53
2022-12-10T08:31:20.771Z,17.17
2022-12-10T08:33:48.249Z,16.53
2022-12-10T08:36:18.089Z,19.03
2022-12-10T08:38:46.449Z,16.67
2022-12-10T08:41:17.346Z,18.60
2022-12-10T08:43:45.260Z,18.50
2022-12-10T08:46:13.663Z,17.00
2022-12-10T08:48:42.929Z,18.03
2022-12-10T08:51:13.054Z,16.93
2022-12-10T08:53:40.524Z,18.87
2022-12-10T08:56:08.366Z,17.83
2022-12-10T08:58:37.542Z,18.60
2022-12-10T09:01:18.373Z,19.93
2022-12-10T09:03:46.146Z,17.97
2022-12-10T09:06:16.693Z,18.97
2022-12-10T09:08:45.076Z,17.00
2022-12-10T09:11:22.338Z,19.70
2022-12-10T09:13:51.092Z,17.80
2022-12-10T09:16:19.090Z,16.97
2022-12-10T09:18:46.760Z,19.47
2022-12-10T09:21:17.348Z,19.73
2022-12-10T09:23:44.851Z,20.07
2022-12-10T09:26:15.328Z,20.60
2022-12-10T09:28:43.114Z,19.57
2022-12-10T09:31:16.253Z,18.53
2022-12-10T09:33:49.940Z,18.93
2022-12-10T09:36:18.315Z,19.83
2022-12-10T09:38:46.793Z,20.93
2022-12-10T09:41:21.592Z,21.40
2022-12-10T09:43:56.449Z,20.37
2022-12-10T09:46:47.510Z,19.77
2022-12-10T09:49:39.615Z,20.17
2022-12-10T09:52:12.325Z,20.20
2022-12-10T09:54:53.260Z,20.47
2022-12-10T09:57:29.009Z,22.07
2022-12-10T09:59:57.795Z,20.27
2022-12-10T10:02:28.382Z,22.13
2022-12-10T10:05:06.151Z,20.63
2022-12-10T10:07:37.288Z,24.07
2022-12-10T10:10:12.682Z,19.20
2022-12-10T10:12:41.307Z,22.13
2022-12-10T10:15:19.349Z,20.50
2022-12-10T10:17:48.076Z,20.33
2022-12-10T10:20:15.559Z,21.03
2022-12-10T10:22:43.706Z,21.57
2022-12-10T10:25:17.633Z,19.80
2022-12-10T10:27:45.874Z,19.73
2022-12-10T10:30:23.410Z,20.70
2022-12-10T10:32:56.610Z,20.47
2022-12-10T10:35:27.130Z,19.83
2022-12-10T10:38:08.808Z,20.50
2022-12-10T10:40:45.138Z,20.40
2022-12-10T10:43:42.274Z,22.03
2022-12-10T10:46:12.779Z,20.83
2022-12-10T10:48:40.411Z,19.53
2022-12-10T10:51:14.050Z,19.80
2022-12-10T10:53:44.944Z,20.23
2022-12-10T10:56:18.886Z,21.07
2022-12-10T10:59:02.518Z,20.93
2022-12-10T11:01:51.017Z,21.13
2022-12-10T11:04:45.692Z,22.07
2022-12-10T11:07:23.463Z,21.60
2022-12-10T11:09:51.429Z,20.83
2022-12-10T11:12:38.983Z,20.97
2022-12-10T11:15:32.423Z,21.50
2022-12-10T11:18:00.776Z,22.87
2022-12-10T11:20:31.594Z,23.50
2022-12-10T11:23:02.057Z,23.70
2022-12-10T11:25:41.726Z,21.83
2022-12-10T11:28:49.850Z,22.60
2022-12-10T11:31:35.977Z,22.30
2022-12-10T11:34:08.203Z,21.30
2022-12-10T11:36:50.644Z,22.87
2022-12-10T11:39:55.202Z,22.10
2022-12-10T11:42:33.643Z,22.07
2022-12-10T11:45:54.947Z,21.87
2022-12-10T11:48:43.706Z,21.70
2022-12-10T11:51:33.710Z,22.83
2022-12-10T11:54:38.567Z,21.03
2022-12-10T11:57:09.285Z,21.33
2022-12-10T12:00:06.381Z,25.03
2022-12-10T12:03:03.666Z,21.13
2022-12-10T12:05:45.977Z,24.00
2022-12-10T12:08:22.435Z,25.20
2022-12-10T12:11:12.576Z,23.30
2022-12-10T12:13:50.665Z,24.40
2022-12-10T12:16:31.351Z,25.87
2022-12-10T12:19:06.455Z,24.70
2022-12-10T12:21:34.835Z,23.83
2022-12-10T12:24:10.395Z,24.27
2022-12-10T12:26:41.004Z,24.37
2022-12-10T12:29:27.211Z,26.23
2022-12-10T12:32:03.671Z,22.87
2022-12-10T12:34:34.050Z,23.33
2022-12-10T12:37:03.012Z,22.43
2022-12-10T12:39:59.141Z,22.40
2022-12-10T12:42:33.024Z,16.73
2022-12-10T12:45:10.031Z,19.07
2022-12-10T12:47:55.468Z,17.77
2022-12-10T12:50:49.780Z,20.73
2022-12-10T12:53:20.609Z,17.43
2022-12-10T12:56:04.746Z,18.57
2022-12-10T12:59:20.534Z,16.00
2022-12-10T13:02:03.076Z,18.80
2022-12-10T13:04:31.084Z,15.53
2022-12-10T13:07:16.858Z,15.47
2022-12-10T13:09:51.838Z,17.33
2022-12-10T13:12:28.173Z,18.30
2022-12-10T13:15:16.961Z,15.97
2022-12-10T13:18:06.723Z,16.00
2022-12-10T13:20:40.827Z,18.40
2022-12-10T13:23:26.262Z,15.50
2022-12-10T13:25:56.370Z,16.23
2022-12-10T13:28:47.277Z,16.10
2022-12-10T13:31:21.654Z,16.33
2022-12-10T13:33:53.375Z,14.77
2022-12-10T13:36:34.335Z,13.93
2022-12-10T13:39:04.758Z,15.57
2022-12-10T13:41:58.616Z,16.10
2022-12-10T13:44:49.731Z,14.90
2022-12-10T13:47:33.090Z,15.00
2022-12-10T13:50:02.917Z,13.27
2022-12-10T13:52:42.695Z,14.10
2022-12-10T13:55:25.579Z,14.60
2022-12-10T13:58:16.343Z,13.60
2022-12-10T14:01:07.076Z,14.60
2022-12-10T14:03:52.866Z,13.97
2022-12-10T14:06:25.251Z,13.27
2022-12-10T14:09:06.900Z,13.43
2022-12-10T14:12:10.065Z,14.80
2022-12-10T14:14:45.112Z,14.33
2022-12-10T14:17:17.260Z,15.97
2022-12-10T14:19:47.133Z,15.07
2022-12-10T14:22:20.707Z,12.87
2022-12-10T14:24:51.629Z,14.60
2022-12-10T14:27:24.986Z,14.07
2022-12-10T14:29:59.500Z,14.10
2022-12-10T14:32:35.367Z,14.03
2022-12-10T14:35:05.166Z,13.77
2022-12-10T14:37:36.922Z,14.43
2022-12-10T14:40:09.237Z,14.03
2022-12-10T14:42:40.579Z,13.20
2022-12-10T14:45:13.836Z,14.20
2022-12-10T14:47:48.192Z,14.60
2022-12-10T14:50:17.860Z,13.90
2022-12-10T14:52:52.037Z,13.70
2022-12-10T14:55:23.083Z,13.37
2022-12-10T14:58:00.297Z,14.40
2022-12-10T15:00:28.042Z,13.37
2022-12-10T15:03:01.709Z,12.13
2022-12-10T15:05:33.756Z,14.30
2022-12-10T15:08:04.443Z,14.47
2022-12-10T15:10:40.667Z,12.53
2022-12-10T15:13:19.438Z,11.93
2022-12-10T15:15:50.875Z,11.07
2022-12-10T15:18:22.019Z,11.83
2022-12-10T15:20:52.522Z,12.40
2022-12-10T15:23:29.036Z,13.00
2022-12-10T15:26:21.435Z,11.27
2022-12-10T15:28:51.946Z,11.50
2022-12-10T15:31:32.412Z,10.97
2022-12-10T15:34:08.910Z,10.27
2022-12-10T15:36:42.536Z,9.77
2022-12-10T15:39:11.031Z,10.87
2022-12-10T15:41:42.844Z,10.67
2022-12-10T15:44:40.158Z,11.70
2022-12-10T15:47:22.606Z,10.77
2022-12-10T15:49:52.651Z,11.60
2022-12-10T15:52:25.199Z,9.53
2022-12-10T15:54:54.471Z,10.00
2022-12-10T15:57:23.440Z,9.97
2022-12-10T15:59:57.402Z,9.90
2022-12-10T16:02:45.073Z,10.70
2022-12-10T16:05:19.172Z,9.10
2022-12-10T16:07:48.594Z,9.93
2022-12-10T16:10:19.483Z,9.73
2022-12-10T16:12:50.612Z,9.47
2022-12-10T16:15:22.003Z,10.13
2022-12-10T16:17:49.374Z,9.67
2022-12-10T16:20:24.806Z,9.17
2022-12-10T16:22:52.930Z,10.10
2022-12-10T16:25:21.144Z,9.83
2022-12-10T16:27:49.099Z,9.87
2022-12-10T16:30:26.378Z,9.83
2022-12-10T16:32:55.763Z,9.33
2022-12-10T16:35:23.206Z,10.13
2022-12-10T16:37:55.268Z,9.50
2022-12-10T16:40:24.808Z,9.50
2022-12-10T16:42:52.502Z,9.87
2022-12-10T16:45:21.792Z,10.43
2022-12-10T16:47:49.431Z,9.77
2022-12-10T16:50:18.556Z,9.53
2022-12-10T16:52:46.223Z,10.13
2022-12-10T16:55:17.724Z,8.40
2022-12-10T16:57:46.956Z,9.93
2022-12-10T17:00:17.087Z,9.83
2022-12-10T17:02:45.545Z,8.77
2022-12-10T17:05:32.141Z,10.40
2022-12-10T17:08:00.428Z,10.57
2022-12-10T17:10:46.830Z,11.10
2022-12-10T17:13:16.706Z,10.10
2022-12-10T17:15:44.757Z,9.17
2022-12-10T17:18:18.132Z,10.20
2022-12-10T17:20:47.266Z,9.47
2022-12-10T17:23:15.157Z,10.27
2022-12-10T17:25:43.604Z,10.60
2022-12-10T17:28:15.617Z,9.73
2022-12-10T17:30:43.935Z,9.40
2022-12-10T17:33:16.874Z,11.27
2022-12-10T17:35:46.944Z,10.60
2022-12-10T17:38:17.574Z,11.03
2022-12-10T17:40:45.270Z,10.03
2022-12-10T17:43:13.335Z,11.20
2022-12-10T17:45:42.427Z,11.57
2022-12-10T17:48:14.942Z,10.27
2022-12-10T17:50:45.490Z,11.57
2022-12-10T17:53:16.670Z,10.83
2022-12-10T17:55:50.830Z,9.07
2022-12-10T17:58:21.287Z,10.90
2022-12-10T18:00:49.823Z,11.50
2022-12-10T18:03:18.520Z,11.07
2022-12-10T18:05:47.338Z,10.47
2022-12-10T18:08:18.685Z,9.57
2022-12-10T18:10:46.497Z,10.23
2022-12-10T18:13:14.015Z,10.30
2022-12-10T18:15:42.069Z,10.80
2022-12-10T18:18:10.605Z,10.70
2022-12-10T18:20:40.934Z,12.17
2022-12-10T18:23:10.474Z,10.23
2022-12-10T18:25:39.031Z,9.57
2022-12-10T18:28:29.326Z,10.50
2022-12-10T18:31:02.015Z,10.30
2022-12-10T18:33:39.686Z,11.90
2022-12-10T18:36:09.416Z,11.40
2022-12-10T18:38:36.831Z,10.20
2022-12-10T18:41:04.246Z,11.10
2022-12-10T18:43:31.620Z,10.87
2022-12-10T18:45:59.241Z,10.60
2022-12-10T18:48:26.616Z,11.03
2022-12-10T18:50:55.127Z,11.00
2022-12-10T18:53:23.333Z,12.00
2022-12-10T18:55:50.883Z,11.70
2022-12-10T18:58:18.107Z,11.50
2022-12-10T19:00:45.560Z,11.53
2022-12-10T19:03:12.911Z,11.23
2022-12-10T19:05:40.348Z,10.63
2022-12-10T19:08:10.804Z,9.67
2022-12-10T19:10:38.218Z,11.27
2022-12-10T19:13:05.649Z,10.70
2022-12-10T19:15:37.157Z,13.00
2022-12-10T19:18:13.020Z,12.17
2022-12-10T19:20:40.438Z,10.73
2022-12-10T19:23:08.379Z,12.87
2022-12-10T19:25:36.358Z,10.73
2022-12-10T19:28:05.850Z,11.47
2022-12-10T19:30:35.151Z,10.47
2022-12-10T19:33:02.751Z,9.33
2022-12-10T19:35:30.499Z,10.37
2022-12-10T19:37:58.156Z,10.57
2022-12-10T19:40:32.227Z,11.50
2022-12-10T19:43:00.383Z,10.13
2022-12-10T19:45:29.678Z,12.13
2022-12-10T19:47:57.394Z,10.07
2022-12-10T19:50:36.108Z,10.33
2022-12-10T19:53:04.875Z,10.67
2022-12-10T19:55:32.583Z,10.73
2022-12-10T19:58:00.252Z,12.87
2022-12-10T20:00:30.598Z,10.53
2022-12-10T20:02:58.033Z,11.23
2022-12-10T20:05:25.502Z,11.60
2022-12-10T20:07:53.089Z,12.17
2022-12-10T20:10:26.497Z,12.47
2022-12-10T20:12:54.669Z,12.73
2022-12-10T20:15:23.949Z,13.20
2022-12-10T20:17:53.467Z,12.17
2022-12-10T20:20:24.673Z,13.00
2022-12-10T20:22:52.772Z,13.37
2022-12-10T20:25:20.745Z,11.73
2022-12-10T20:27:48.177Z,13.57
2022-12-10T20:30:23.626Z,12.63
2022-12-10T20:32:51.476Z,11.73
2022-12-10T20:35:20.801Z,11.57
2022-12-10T20:37:49.203Z,11.57
2022-12-10T20:40:33.920Z,12.17
2022-12-10T20:43:01.531Z,11.50
2022-12-10T20:45:29.352Z,11.87
2022-12-10T20:47:57.411Z,10.00
2022-12-10T20:50:25.040Z,10.40
2022-12-10T20:52:52.760Z,10.10
2022-12-10T20:55:20.492Z,10.57
2022-12-10T20:57:48.190Z,9.77
2022-12-10T21:00:21.526Z,9.70
2022-12-10T21:02:50.733Z,9.73
2022-12-10T21:05:18.952Z,10.60
2022-12-10T21:07:46.568Z,9.83
2022-12-10T21:10:36.706Z,9.07
2022-12-10T21:13:06.807Z,9.23
2022-12-10T21:15:34.853Z,10.07
2022-12-10T21:18:02.325Z,9.23
2022-12-10T21:20:29.890Z,10.20
2022-12-10T21:22:57.390Z,10.10
2022-12-10T21:25:24.858Z,11.37
2022-12-10T21:27:52.446Z,9.07
2022-12-10T21:30:20.170Z,10.07
2022-12-10T21:32:47.622Z,9.57
2022-12-10T21:35:15.160Z,9.63
2022-12-10T21:37:42.624Z,11.53
2022-12-10T21:40:10.968Z,11.17
2022-12-10T21:42:57.286Z,9.83
2022-12-10T21:45:30.325Z,9.00
2022-12-10T21:47:59.439Z,10.70
2022-12-10T21:50:28.067Z,11.10
2022-12-10T21:52:55.534Z,11.40
2022-12-10T21:55:29.731Z,11.43
2022-12-10T21:57:58.896Z,12.30
2022-12-10T22:00:26.630Z,11.60
2022-12-10T22:02:54.107Z,10.17
2022-12-10T22:05:21.584Z,10.30
2022-12-10T22:07:48.933Z,11.23
2022-12-10T22:10:16.491Z,11.07
2022-12-10T22:12:43.973Z,12.83
2022-12-10T22:15:12.796Z,12.00
2022-12-10T22:17:40.138Z,11.00
2022-12-10T22:20:08.184Z,11.93
2022-12-10T22:22:35.693Z,10.57
2022-12-10T22:25:03.639Z,11.00
2022-12-10T22:27:32.843Z,12.00
2022-12-10T22:30:00.492Z,11.97
2022-12-10T22:32:28.636Z,11.93
2022-12-10T22:34:56.126Z,11.87
2022-12-10T22:37:23.694Z,11.10
2022-12-10T22:39:51.039Z,12.47
2022-12-10T22:42:18.262Z,10.80
2022-12-10T22:44:45.496Z,12.77
2022-12-10T22:47:13.383Z,11.97
2022-12-10T22:49:40.875Z,12.17
2022-12-10T22:52:08.316Z,11.30
2022-12-10T22:54:35.836Z,12.30
2022-12-10T22:57:03.185Z,11.73
2022-12-10T22:59:30.546Z,10.83
2022-12-10T23:01:58.622Z,13.23
2022-12-10T23:04:26.063Z,12.87
2022-12-10T23:06:53.492Z,13.60
2022-12-10T23:09:21.606Z,12.30
2022-12-10T23:12:07.516Z,10.63
2022-12-10T23:14:35.295Z,10.47
2022-12-10T23:17:02.968Z,13.60
2022-12-10T23:19:30.763Z,11.97
2022-12-10T23:21:58.187Z,12.27
2022-12-10T23:24:25.490Z,11.63
2022-12-10T23:26:52.879Z,11.63
2022-12-10T23:29:20.366Z,11.07
2022-12-10T23:31:47.716Z,12.33
2022-12-10T23:34:15.034Z,12.53
2022-12-10T23:36:42.250Z,11.30
2022-12-10T23:39:09.980Z,11.73
2022-12-10T23:41:37.515Z,10.63
2022-12-10T23:44:04.925Z,13.30
2022-12-10T23:46:32.146Z,10.47
2022-12-10T23:48:59.650Z,12.20
2022-12-10T23:51:26.918Z,10.43
2022-12-10T23:53:54.479Z,11.53
2022-12-10T23:56:22.431Z,12.13
2022-12-10T23:58:49.929Z,13.33
